Time;durP1;ratioP1;P1;durP2;ratioP2;P2;SDS_P1;SDS_P2;PMS_P1;PMS_P2;Temp;Humidity;BMP_temperature;BMP_pressure;BME280_temperature;BME280_humidity;BME280_pressure;Samples;Min_cycle;Max_cycle;Signal;HPM_P1;HPM_P2
2022/03/13 00:01:21;;;;;;;;;;;-3.90;83.60;;;;;;5091792;28;19915;-80
2022/03/13 00:03:46;;;;;;;;;;;-2.40;84.00;;;;;;5091129;28;19919;-80
2022/03/13 00:06:14;;;;;;;;;;;-4.00;83.40;;;;;;5109681;28;19911;-80
2022/03/13 00:08:40;;;;;;;;;;;-4.00;83.90;;;;;;5109233;28;20123;-79
2022/03/13 00:11:16;;;;;;;;;;;-2.70;84.60;;;;;;5110896;28;20468;-80
2022/03/13 00:13:50;;;;;;;;;;;-4.00;84.10;;;;;;5083095;28;20235;-79
2022/03/13 00:16:18;;;;;;;;;;;-4.20;83.90;;;;;;5101224;28;20235;-79
2022/03/13 00:18:47;;;;;;;;;;;-2.30;85.20;;;;;;5102061;28;19969;-80
2022/03/13 00:21:16;;;;;;;;;;;-4.30;85.00;;;;;;5083082;28;20188;-79
2022/03/13 00:23:43;;;;;;;;;;;-4.40;84.40;;;;;;5101691;28;19911;-79
2022/03/13 00:26:08;;;;;;;;;;;-4.40;85.20;;;;;;5101390;28;19908;-79
2022/03/13 00:28:36;;;;;;;;;;;-4.40;84.90;;;;;;5102014;28;19920;-80
2022/03/13 00:31:02;;;;;;;;;;;-3.00;86.30;;;;;;5103181;28;19911;-79
2022/03/13 00:33:28;;;;;;;;;;;-4.40;85.60;;;;;;5102385;28;20458;-79
2022/03/13 00:35:53;;;;;;;;;;;-2.60;86.50;;;;;;5102061;28;19908;-79
2022/03/13 00:38:19;;;;;;;;;;;-5.00;85.10;;;;;;5102809;28;19912;-79
2022/03/13 00:40:50;;;;;;;;;;;-4.40;84.90;;;;;;5102339;28;19915;-79
2022/03/13 00:43:16;;;;;;;;;;;-3.90;85.10;;;;;;5103544;28;20010;-80
2022/03/13 00:45:41;;;;;;;;;;;-3.00;86.00;;;;;;5103076;28;20482;-79
2022/03/13 00:48:07;;;;;;;;;;;-4.40;85.30;;;;;;5101167;28;20045;-79
2022/03/13 00:50:33;;;;;;;;;;;-4.30;85.50;;;;;;5082645;28;20096;-80
2022/03/13 00:52:58;;;;;;;;;;;-4.40;85.40;;;;;;5102130;28;20006;-79
2022/03/13 00:55:24;;;;;;;;;;;-3.10;85.80;;;;;;5100431;28;19915;-79
2022/03/13 00:57:50;;;;;;;;;;;-3.50;85.40;;;;;;5100810;28;20523;-79
2022/03/13 01:00:17;;;;;;;;;;;-4.50;84.50;;;;;;5101140;28;20474;-80
2022/03/13 01:02:43;;;;;;;;;;;-4.60;85.00;;;;;;5102580;28;20385;-79
2022/03/13 01:05:12;;;;;;;;;;;-4.70;85.70;;;;;;5102744;28;19907;-79
2022/03/13 01:07:38;;;;;;;;;;;-4.70;86.00;;;;;;5104229;28;20018;-79
2022/03/13 01:10:07;;;;;;;;;;;-4.70;86.40;;;;;;5104355;28;20207;-80
2022/03/13 01:12:33;;;;;;;;;;;-4.80;86.40;;;;;;5088028;28;20290;-79
2022/03/13 01:14:58;;;;;;;;;;;-3.70;86.90;;;;;;5105331;28;19908;-79
2022/03/13 01:17:24;;;;;;;;;;;-4.80;86.90;;;;;;5104860;28;19916;-79
2022/03/13 01:19:50;;;;;;;;;;;-4.90;87.00;;;;;;5105186;28;20201;-80
2022/03/13 01:22:16;;;;;;;;;;;-4.90;87.00;;;;;;5104181;28;20000;-79
2022/03/13 01:24:46;;;;;;;;;;;-3.90;87.80;;;;;;5104132;28;19985;-79
2022/03/13 01:27:13;;;;;;;;;;;-4.90;87.80;;;;;;5103675;28;19911;-79
2022/03/13 01:29:39;;;;;;;;;;;-2.60;89.00;;;;;;5103302;28;19912;-79
2022/03/13 01:32:07;;;;;;;;;;;-6.10;87.40;;;;;;5103853;28;19912;-79
2022/03/13 01:34:32;;;;;;;;;;;-5.00;88.20;;;;;;5103383;28;20366;-80
2022/03/13 01:36:58;;;;;;;;;;;-4.00;88.30;;;;;;5084590;28;19966;-79
2022/03/13 01:39:24;;;;;;;;;;;-4.50;88.10;;;;;;5103007;28;19988;-79
2022/03/13 01:41:50;;;;;;;;;;;-4.90;88.20;;;;;;5084861;28;19972;-79
2022/03/13 01:44:18;;;;;;;;;;;-5.20;88.30;;;;;;5104032;28;19916;-79
2022/03/13 01:46:43;;;;;;;;;;;-3.70;89.40;;;;;;5103656;28;19920;-79
2022/03/13 01:49:09;;;;;;;;;;;-5.20;88.70;;;;;;5104311;28;20006;-79
2022/03/13 01:51:35;;;;;;;;;;;-3.40;89.50;;;;;;5086694;28;20409;-80
2022/03/13 01:54:04;;;;;;;;;;;-5.40;88.50;;;;;;5105887;28;19915;-79
2022/03/13 01:56:31;;;;;;;;;;;-5.50;89.00;;;;;;5105033;28;20149;-79
2022/03/13 01:58:57;;;;;;;;;;;-5.60;89.30;;;;;;5109213;28;19916;-80
2022/03/13 02:01:24;;;;;;;;;;;-4.60;90.00;;;;;;5109219;28;19927;-80
2022/03/13 02:03:50;;;;;;;;;;;-5.60;89.80;;;;;;5104786;28;19976;-79
2022/03/13 02:06:17;;;;;;;;;;;-4.40;90.10;;;;;;5108511;28;19999;-79
2022/03/13 02:08:44;;;;;;;;;;;-5.60;89.70;;;;;;5093457;28;20002;-79
2022/03/13 02:11:09;;;;;;;;;;;-4.20;90.30;;;;;;5112285;28;20002;-79
2022/03/13 02:13:36;;;;;;;;;;;-5.70;90.00;;;;;;5111057;28;20472;-80
2022/03/13 02:16:02;;;;;;;;;;;-3.40;90.50;;;;;;5106542;28;19950;-79
2022/03/13 02:18:28;;;;;;;;;;;-5.20;90.30;;;;;;5103607;28;19916;-79
2022/03/13 02:20:53;;;;;;;;;;;-5.60;90.20;;;;;;5103327;28;19972;-79
2022/03/13 02:23:26;;;;;;;;;;;-5.00;90.40;;;;;;5103218;28;20497;-79
2022/03/13 02:25:53;;;;;;;;;;;-5.90;90.20;;;;;;5102403;28;19907;-79
2022/03/13 02:28:22;;;;;;;;;;;-5.90;90.20;;;;;;5083837;28;19923;-79
2022/03/13 02:30:49;;;;;;;;;;;-5.90;90.00;;;;;;5101538;28;19912;-79
2022/03/13 02:33:17;;;;;;;;;;;-2.50;91.00;;;;;;5102868;28;20348;-80
2022/03/13 02:35:43;;;;;;;;;;;-5.80;90.00;;;;;;5084106;28;19998;-79
2022/03/13 02:38:08;;;;;;;;;;;-5.80;90.00;;;;;;5102673;28;20150;-79
2022/03/13 02:40:34;;;;;;;;;;;-4.90;90.10;;;;;;5102135;28;20006;-79
2022/03/13 02:43:00;;;;;;;;;;;-4.20;90.20;;;;;;5102418;28;20105;-79
2022/03/13 02:45:29;;;;;;;;;;;-5.90;90.20;;;;;;5102027;28;20195;-79
2022/03/13 02:47:55;;;;;;;;;;;-6.00;90.00;;;;;;5102412;28;19916;-79
2022/03/13 02:50:20;;;;;;;;;;;-6.00;90.40;;;;;;5102970;28;20374;-79
2022/03/13 02:52:46;;;;;;;;;;;-6.00;90.30;;;;;;5083651;28;20362;-79
2022/03/13 02:55:12;;;;;;;;;;;-6.10;90.30;;;;;;5101418;28;20233;-79
2022/03/13 02:57:38;;;;;;;;;;;-4.60;90.50;;;;;;5101492;28;20566;-79
2022/03/13 03:00:05;;;;;;;;;;;-6.00;90.20;;;;;;5101577;28;19916;-79
2022/03/13 03:02:31;;;;;;;;;;;-6.00;90.30;;;;;;5101877;28;19923;-79
2022/03/13 03:04:56;;;;;;;;;;;-6.10;90.30;;;;;;5101510;28;19908;-79
2022/03/13 03:07:22;;;;;;;;;;;-6.20;90.60;;;;;;5102048;28;20294;-79
2022/03/13 03:09:47;;;;;;;;;;;-6.20;90.60;;;;;;5101567;28;20278;-79
2022/03/13 03:12:13;;;;;;;;;;;-5.90;90.50;;;;;;5101861;28;19912;-79
2022/03/13 03:14:39;;;;;;;;;;;-4.50;90.70;;;;;;5102900;28;19908;-78
2022/03/13 03:17:05;;;;;;;;;;;-4.80;90.60;;;;;;5102863;28;19942;-79
2022/03/13 03:19:30;;;;;;;;;;;-6.20;90.30;;;;;;5083201;28;19908;-79
2022/03/13 03:21:58;;;;;;;;;;;-6.10;90.20;;;;;;5101788;28;20408;-79
2022/03/13 03:24:25;;;;;;;;;;;-6.00;90.10;;;;;;5084144;28;19907;-79
2022/03/13 03:26:51;;;;;;;;;;;-6.00;90.00;;;;;;5083883;28;19907;-79
2022/03/13 03:29:16;;;;;;;;;;;-6.20;90.00;;;;;;5101251;28;20675;-79
2022/03/13 03:31:46;;;;;;;;;;;-4.20;90.60;;;;;;5101819;28;20297;-79
2022/03/13 03:34:13;;;;;;;;;;;-4.80;90.70;;;;;;5101440;28;19908;-80
2022/03/13 03:36:40;;;;;;;;;;;-6.20;90.30;;;;;;5101826;28;20026;-79
2022/03/13 03:39:06;;;;;;;;;;;-6.20;90.30;;;;;;5083755;28;19907;-79
2022/03/13 03:41:31;;;;;;;;;;;-5.00;90.60;;;;;;5102414;28;20478;-80
2022/03/13 03:43:57;;;;;;;;;;;-6.40;90.40;;;;;;5102412;28;19914;-78
2022/03/13 03:46:24;;;;;;;;;;;-6.10;90.30;;;;;;5083616;28;19920;-79
2022/03/13 03:48:50;;;;;;;;;;;-5.60;90.70;;;;;;5101672;28;20100;-79
2022/03/13 03:51:16;;;;;;;;;;;-6.30;90.40;;;;;;5100955;28;20211;-80
2022/03/13 03:53:42;;;;;;;;;;;-6.30;90.50;;;;;;5100960;28;19966;-79
2022/03/13 03:56:08;;;;;;;;;;;-5.40;90.70;;;;;;5101725;28;19935;-79
2022/03/13 03:58:36;;;;;;;;;;;-6.20;90.50;;;;;;5101752;28;20176;-79
2022/03/13 04:01:03;;;;;;;;;;;-6.40;90.90;;;;;;5102617;28;19912;-79
2022/03/13 04:03:28;;;;;;;;;;;-6.50;90.70;;;;;;5102166;28;19907;-79
2022/03/13 04:05:54;;;;;;;;;;;-5.30;90.90;;;;;;5102413;28;19983;-79
2022/03/13 04:08:19;;;;;;;;;;;-5.10;91.00;;;;;;5102481;28;19907;-79
2022/03/13 04:10:45;;;;;;;;;;;-6.40;90.60;;;;;;5109171;28;19994;-80
2022/03/13 04:13:11;;;;;;;;;;;-6.40;90.60;;;;;;5105298;28;20509;-80
2022/03/13 04:15:37;;;;;;;;;;;-6.20;90.70;;;;;;5102681;28;19914;-79
2022/03/13 04:18:03;;;;;;;;;;;-6.50;90.60;;;;;;5102849;28;19927;-79
2022/03/13 04:20:29;;;;;;;;;;;-6.50;90.70;;;;;;5101883;28;19990;-79
2022/03/13 04:22:55;;;;;;;;;;;-4.10;91.30;;;;;;5101888;28;19912;-79
2022/03/13 04:25:21;;;;;;;;;;;-4.50;91.10;;;;;;5102244;28;19916;-79
2022/03/13 04:27:47;;;;;;;;;;;-5.70;91.00;;;;;;5101782;28;19908;-80
2022/03/13 04:30:13;;;;;;;;;;;-5.70;91.20;;;;;;5101242;28;19912;-79
2022/03/13 04:32:41;;;;;;;;;;;-6.50;90.70;;;;;;5101787;28;19927;-79
2022/03/13 04:35:06;;;;;;;;;;;-4.90;90.90;;;;;;5101161;28;19908;-79
2022/03/13 04:37:32;;;;;;;;;;;-6.50;90.40;;;;;;5082970;28;19916;-79
2022/03/13 04:39:58;;;;;;;;;;;-6.50;90.50;;;;;;5102233;28;20309;-78
2022/03/13 04:42:23;;;;;;;;;;;-5.80;90.80;;;;;;5103801;28;19908;-80
2022/03/13 04:44:50;;;;;;;;;;;-6.50;90.60;;;;;;5090074;28;20342;-80
2022/03/13 04:47:15;;;;;;;;;;;-6.60;90.50;;;;;;5113045;28;19920;-80
2022/03/13 04:49:41;;;;;;;;;;;-4.80;91.30;;;;;;5112478;28;19931;-80
2022/03/13 04:52:07;;;;;;;;;;;-4.40;91.20;;;;;;5111706;28;19973;-79
2022/03/13 04:54:32;;;;;;;;;;;-6.60;90.60;;;;;;5112734;28;20578;-79
2022/03/13 04:56:58;;;;;;;;;;;-6.60;90.80;;;;;;5111732;28;19966;-79
2022/03/13 04:59:24;;;;;;;;;;;-6.90;90.70;;;;;;5109056;28;19911;-79
2022/03/13 05:01:52;;;;;;;;;;;-6.70;90.90;;;;;;5106494;28;20474;-79
2022/03/13 05:04:17;;;;;;;;;;;-6.80;90.90;;;;;;5106134;28;19910;-79
2022/03/13 05:06:45;;;;;;;;;;;-6.30;91.00;;;;;;5085822;28;19969;-80
2022/03/13 05:09:10;;;;;;;;;;;-6.00;91.10;;;;;;5104452;28;19911;-79
2022/03/13 05:11:36;;;;;;;;;;;-6.80;91.10;;;;;;5104335;28;19919;-79
2022/03/13 05:14:02;;;;;;;;;;;-6.20;91.30;;;;;;5086231;28;19911;-79
2022/03/13 05:16:27;;;;;;;;;;;-8.20;90.70;;;;;;5104845;28;19923;-79
2022/03/13 05:18:53;;;;;;;;;;;-6.80;91.00;;;;;;5105254;28;19908;-79
2022/03/13 05:21:19;;;;;;;;;;;-6.70;90.90;;;;;;5086590;28;19934;-80
2022/03/13 05:23:45;;;;;;;;;;;-5.30;91.00;;;;;;5105026;28;19931;-79
2022/03/13 05:26:10;;;;;;;;;;;-4.80;90.90;;;;;;5104945;28;19908;-79
2022/03/13 05:28:36;;;;;;;;;;;-6.70;90.60;;;;;;5091824;28;20192;-79
2022/03/13 05:31:02;;;;;;;;;;;-6.80;90.60;;;;;;5093781;28;19915;-80
2022/03/13 05:33:27;;;;;;;;;;;-6.70;90.70;;;;;;5111049;28;19908;-79
2022/03/13 05:35:55;;;;;;;;;;;-6.70;90.30;;;;;;5111442;28;19923;-79
2022/03/13 05:38:21;;;;;;;;;;;-6.70;90.60;;;;;;5105158;28;20018;-79
2022/03/13 05:40:46;;;;;;;;;;;-6.60;90.60;;;;;;5104048;28;20014;-79
2022/03/13 05:43:12;;;;;;;;;;;-6.70;90.40;;;;;;5104134;28;20428;-79
2022/03/13 05:45:39;;;;;;;;;;;-5.70;90.60;;;;;;5103226;28;19919;-79
2022/03/13 05:48:09;;;;;;;;;;;-6.70;90.30;;;;;;5103123;28;20622;-79
2022/03/13 05:50:35;;;;;;;;;;;-6.60;90.30;;;;;;5084431;28;19914;-80
2022/03/13 05:53:00;;;;;;;;;;;-6.60;90.20;;;;;;5102424;28;19908;-79
2022/03/13 05:55:26;;;;;;;;;;;-6.50;90.10;;;;;;5102028;28;20340;-79
2022/03/13 05:57:56;;;;;;;;;;;-5.40;90.30;;;;;;5101493;28;19920;-80
2022/03/13 06:00:22;;;;;;;;;;;-6.40;89.40;;;;;;5102464;28;19918;-79
2022/03/13 06:02:48;;;;;;;;;;;-6.30;89.80;;;;;;5102438;28;19936;-79
2022/03/13 06:05:16;;;;;;;;;;;-6.30;89.60;;;;;;5102085;28;19907;-79
2022/03/13 06:07:42;;;;;;;;;;;-3.70;90.30;;;;;;5102293;28;19919;-79
2022/03/13 06:10:08;;;;;;;;;;;-6.20;89.00;;;;;;5101947;28;19912;-79
2022/03/13 06:12:34;;;;;;;;;;;-6.10;88.70;;;;;;5102473;28;20445;-79
2022/03/13 06:15:00;;;;;;;;;;;-6.10;88.20;;;;;;5103223;28;20002;-79
2022/03/13 06:17:27;;;;;;;;;;;-5.80;88.10;;;;;;5083761;28;20635;-80
2022/03/13 06:19:55;;;;;;;;;;;-6.00;88.20;;;;;;5107692;28;19935;-79
2022/03/13 06:22:21;;;;;;;;;;;-5.90;88.30;;;;;;5108369;28;20638;-80
2022/03/13 06:24:46;;;;;;;;;;;-3.40;89.50;;;;;;5102875;28;19956;-79
2022/03/13 06:27:13;;;;;;;;;;;-4.60;88.00;;;;;;5084462;28;19946;-80
2022/03/13 06:29:39;;;;;;;;;;;-4.80;87.00;;;;;;5102108;28;19908;-80
2022/03/13 06:32:06;;;;;;;;;;;-5.40;86.30;;;;;;5102490;28;19908;-80
2022/03/13 06:34:32;;;;;;;;;;;-5.30;86.10;;;;;;5083847;28;19908;-80
2022/03/13 06:36:58;;;;;;;;;;;-5.20;85.40;;;;;;5101793;28;19976;-80
2022/03/13 06:39:23;;;;;;;;;;;-5.10;85.10;;;;;;5102076;28;20607;-80
2022/03/13 06:41:49;;;;;;;;;;;-5.00;85.00;;;;;;5084270;28;19908;-79
2022/03/13 06:44:16;;;;;;;;;;;-4.60;85.00;;;;;;5103196;28;20126;-79
2022/03/13 06:46:41;;;;;;;;;;;-4.80;83.90;;;;;;5085674;28;19920;-79
2022/03/13 06:49:07;;;;;;;;;;;-4.40;83.90;;;;;;5102895;28;20104;-79
2022/03/13 06:51:33;;;;;;;;;;;-4.50;82.60;;;;;;5103369;28;19915;-79
2022/03/13 06:53:59;;;;;;;;;;;-4.40;82.00;;;;;;5101756;28;19922;-79
2022/03/13 06:56:24;;;;;;;;;;;-4.30;81.20;;;;;;5103553;28;19912;-79
2022/03/13 06:59:03;;;;;;;;;;;-5.70;80.20;;;;;;5103582;28;19912;-79
2022/03/13 07:01:34;;;;;;;;;;;-4.10;81.10;;;;;;5086500;28;20310;-79
2022/03/13 07:04:00;;;;;;;;;;;-4.00;80.90;;;;;;5107036;28;19918;-80
2022/03/13 07:06:26;;;;;;;;;;;-3.90;80.50;;;;;;5088683;28;19908;-79
2022/03/13 07:08:52;;;;;;;;;;;-3.70;80.60;;;;;;5105404;28;19915;-79
2022/03/13 07:11:17;;;;;;;;;;;-3.60;80.80;;;;;;5106674;28;19958;-79
2022/03/13 07:13:44;;;;;;;;;;;-3.50;78.90;;;;;;5107935;28;19911;-79
2022/03/13 07:16:10;;;;;;;;;;;-3.30;78.40;;;;;;5105851;28;19911;-79
2022/03/13 07:18:36;;;;;;;;;;;-3.10;77.30;;;;;;5105448;28;20030;-79
2022/03/13 07:21:02;;;;;;;;;;;-3.00;77.50;;;;;;5104943;28;19912;-79
2022/03/13 07:23:27;;;;;;;;;;;-3.30;76.10;;;;;;5105227;28;19912;-79
2022/03/13 07:25:53;;;;;;;;;;;-2.60;74.70;;;;;;5104281;28;20341;-79
2022/03/13 07:28:18;;;;;;;;;;;-3.60;72.80;;;;;;5103152;28;19987;-79
2022/03/13 07:30:45;;;;;;;;;;;-2.30;72.60;;;;;;5104461;28;19943;-79
2022/03/13 07:33:11;;;;;;;;;;;-2.10;72.00;;;;;;5105457;28;19994;-79
2022/03/13 07:35:37;;;;;;;;;;;-2.00;71.80;;;;;;5103556;28;19907;-79
2022/03/13 07:38:04;;;;;;;;;;;-1.80;71.90;;;;;;5104983;28;19927;-79
2022/03/13 07:40:30;;;;;;;;;;;-0.20;72.20;;;;;;5104723;28;19918;-79
2022/03/13 07:42:56;;;;;;;;;;;-1.50;70.10;;;;;;5103684;28;19908;-79
2022/03/13 07:45:23;;;;;;;;;;;-1.40;67.80;;;;;;5083373;28;19908;-80
2022/03/13 07:47:48;;;;;;;;;;;-1.30;67.50;;;;;;5083700;28;19926;-79
2022/03/13 07:50:14;;;;;;;;;;;-1.20;66.60;;;;;;5083051;28;19908;-79
2022/03/13 07:52:40;;;;;;;;;;;-1.10;65.20;;;;;;5101086;28;19912;-78
2022/03/13 07:55:05;;;;;;;;;;;1.10;65.40;;;;;;5101480;28;19925;-79
2022/03/13 07:57:31;;;;;;;;;;;0.90;65.30;;;;;;5100789;28;20025;-78
2022/03/13 07:59:57;;;;;;;;;;;-0.70;63.20;;;;;;5102525;28;19907;-79
2022/03/13 08:02:22;;;;;;;;;;;-0.60;61.70;;;;;;5106435;28;19912;-79
2022/03/13 08:04:48;;;;;;;;;;;-0.40;60.90;;;;;;5106299;28;20449;-79
2022/03/13 08:07:13;;;;;;;;;;;-0.10;59.70;;;;;;5106585;28;20025;-79
2022/03/13 08:09:39;;;;;;;;;;;0.00;58.30;;;;;;5105541;28;19964;-80
2022/03/13 08:12:05;;;;;;;;;;;0.20;58.60;;;;;;5105722;28;19907;-79
2022/03/13 08:14:31;;;;;;;;;;;0.40;56.80;;;;;;5105740;28;19918;-79
2022/03/13 08:16:56;;;;;;;;;;;0.80;55.30;;;;;;5106395;28;19915;-79
2022/03/13 08:19:22;;;;;;;;;;;0.60;55.40;;;;;;5089015;28;20188;-80
2022/03/13 08:21:47;;;;;;;;;;;0.80;54.10;;;;;;5106593;28;19915;-80
2022/03/13 08:24:15;;;;;;;;;;;0.80;53.60;;;;;;5087264;28;20384;-79
2022/03/13 08:26:41;;;;;;;;;;;1.00;52.10;;;;;;5088649;28;19908;-80
2022/03/13 08:29:07;;;;;;;;;;;1.10;52.30;;;;;;5102686;28;19965;-79
2022/03/13 08:31:33;;;;;;;;;;;1.30;51.50;;;;;;5101555;28;19912;-81
2022/03/13 08:34:00;;;;;;;;;;;1.50;51.00;;;;;;5104702;28;20202;-79
2022/03/13 08:36:27;;;;;;;;;;;1.60;51.60;;;;;;5108401;28;19912;-80
2022/03/13 08:38:53;;;;;;;;;;;1.80;51.40;;;;;;5082800;28;20158;-80
2022/03/13 08:41:18;;;;;;;;;;;1.70;49.90;;;;;;5100913;28;20023;-80
2022/03/13 08:43:44;;;;;;;;;;;1.90;49.50;;;;;;5101227;28;19912;-80
2022/03/13 08:46:12;;;;;;;;;;;2.80;49.60;;;;;;5101752;28;20274;-80
2022/03/13 08:48:38;;;;;;;;;;;2.10;49.20;;;;;;5102575;28;19908;-79
2022/03/13 08:51:04;;;;;;;;;;;2.30;49.00;;;;;;5102520;27;19968;-79
2022/03/13 08:53:30;;;;;;;;;;;2.40;47.60;;;;;;5084741;28;19911;-79
2022/03/13 08:55:55;;;;;;;;;;;2.30;47.50;;;;;;5084783;28;19918;-80
2022/03/13 08:58:21;;;;;;;;;;;2.50;46.90;;;;;;5104684;28;19915;-80
2022/03/13 09:00:47;;;;;;;;;;;2.60;45.50;;;;;;5104488;28;19916;-79
2022/03/13 09:03:13;;;;;;;;;;;2.70;45.20;;;;;;5103165;28;19912;-80
2022/03/13 09:05:39;;;;;;;;;;;3.00;45.70;;;;;;5102034;28;20405;-80
2022/03/13 09:08:05;;;;;;;;;;;3.20;43.60;;;;;;5082997;28;20262;-80
2022/03/13 09:10:30;;;;;;;;;;;3.20;43.30;;;;;;5101488;28;20366;-80
2022/03/13 09:12:56;;;;;;;;;;;3.40;43.50;;;;;;5100452;28;20109;-80
2022/03/13 09:15:22;;;;;;;;;;;3.60;43.50;;;;;;5099437;28;19935;-79
2022/03/13 09:17:53;;;;;;;;;;;3.60;42.60;;;;;;5098986;28;20014;-80
2022/03/13 09:20:19;;;;;;;;;;;3.80;42.10;;;;;;5099366;28;20249;-80
2022/03/13 09:22:45;;;;;;;;;;;3.70;41.80;;;;;;5098863;28;19919;-79
2022/03/13 09:25:10;;;;;;;;;;;3.60;41.80;;;;;;5098794;28;19912;-79
2022/03/13 09:27:36;;;;;;;;;;;3.90;42.10;;;;;;5098440;28;20426;-79
2022/03/13 09:30:01;;;;;;;;;;;4.20;41.20;;;;;;5098827;28;20185;-79
2022/03/13 09:32:28;;;;;;;;;;;4.10;40.80;;;;;;5100435;28;20103;-79
2022/03/13 09:34:54;;;;;;;;;;;4.20;40.70;;;;;;5102458;28;19964;-79
2022/03/13 09:37:20;;;;;;;;;;;4.30;40.80;;;;;;5085000;28;20200;-79
2022/03/13 09:39:46;;;;;;;;;;;6.20;41.30;;;;;;5102560;28;20185;-79
2022/03/13 09:42:12;;;;;;;;;;;4.60;39.80;;;;;;5102340;28;20074;-78
2022/03/13 09:44:38;;;;;;;;;;;4.80;39.40;;;;;;5103416;28;20282;-79
2022/03/13 09:47:05;;;;;;;;;;;4.90;39.40;;;;;;5084081;28;20385;-79
2022/03/13 09:49:31;;;;;;;;;;;5.00;39.10;;;;;;5102280;28;19912;-79
2022/03/13 09:51:57;;;;;;;;;;;5.00;39.20;;;;;;5102974;28;20266;-80
2022/03/13 09:54:22;;;;;;;;;;;5.30;39.00;;;;;;5103612;28;19916;-78
2022/03/13 09:56:48;;;;;;;;;;;5.60;38.80;;;;;;5084716;28;19926;-79
2022/03/13 09:59:14;;;;;;;;;;;5.80;39.70;;;;;;5102217;28;19916;-79
2022/03/13 10:01:40;;;;;;;;;;;6.00;37.60;;;;;;5103096;28;20132;-79
2022/03/13 10:04:06;;;;;;;;;;;5.90;37.80;;;;;;5085482;28;20337;-80
2022/03/13 10:06:52;;;;;;;;;;;5.80;37.40;;;;;;5103500;28;19907;-79
2022/03/13 10:09:24;;;;;;;;;;;5.90;37.30;;;;;;5102821;28;20440;-79
2022/03/13 10:12:01;;;;;;;;;;;6.00;37.10;;;;;;5103750;28;20044;-79
2022/03/13 10:14:27;;;;;;;;;;;6.10;37.30;;;;;;5103757;28;19908;-79
2022/03/13 10:16:52;;;;;;;;;;;6.20;36.50;;;;;;5104375;28;20543;-79
2022/03/13 10:19:19;;;;;;;;;;;6.30;36.70;;;;;;5107714;28;19918;-79
2022/03/13 10:22:00;;;;;;;;;;;6.40;36.80;;;;;;5112696;28;20085;-79
2022/03/13 10:24:27;;;;;;;;;;;6.40;36.00;;;;;;5112682;28;19948;-79
2022/03/13 10:27:11;;;;;;;;;;;6.40;35.90;;;;;;5112823;28;20208;-79
2022/03/13 10:29:37;;;;;;;;;;;6.60;36.20;;;;;;5107393;28;19908;-79
2022/03/13 10:32:05;;;;;;;;;;;6.50;36.90;;;;;;5104675;28;20172;-79
2022/03/13 10:34:31;;;;;;;;;;;6.90;35.90;;;;;;5106713;28;19987;-79
2022/03/13 10:36:57;;;;;;;;;;;7.10;35.60;;;;;;5106100;28;19958;-79
2022/03/13 10:39:23;;;;;;;;;;;7.10;35.60;;;;;;5086355;28;19955;-79
2022/03/13 10:41:53;;;;;;;;;;;7.30;35.20;;;;;;5105540;28;20219;-79
2022/03/13 10:44:22;;;;;;;;;;;7.40;35.30;;;;;;5106060;28;20097;-79
2022/03/13 10:46:52;;;;;;;;;;;7.60;36.60;;;;;;5107268;28;19947;-79
2022/03/13 10:49:31;;;;;;;;;;;7.60;35.60;;;;;;5093794;28;19908;-79
2022/03/13 10:51:57;;;;;;;;;;;7.90;36.20;;;;;;5087550;28;20215;-79
2022/03/13 10:54:30;;;;;;;;;;;8.00;34.60;;;;;;5103863;28;19926;-79
2022/03/13 10:57:09;;;;;;;;;;;7.80;35.20;;;;;;5103034;28;20154;-79
2022/03/13 10:59:35;;;;;;;;;;;8.00;35.00;;;;;;5103121;28;19912;-79
2022/03/13 11:02:10;;;;;;;;;;;8.10;35.10;;;;;;5102531;28;20214;-79
2022/03/13 11:04:44;;;;;;;;;;;8.20;35.50;;;;;;5101748;28;20081;-79
2022/03/13 11:07:10;;;;;;;;;;;8.30;34.30;;;;;;5101858;28;19922;-79
2022/03/13 11:09:35;;;;;;;;;;;8.50;33.60;;;;;;5102602;28;19907;-79
2022/03/13 11:12:06;;;;;;;;;;;8.90;35.10;;;;;;5102711;28;19922;-80
2022/03/13 11:14:34;;;;;;;;;;;9.30;33.70;;;;;;5102497;28;19998;-80
2022/03/13 11:17:01;;;;;;;;;;;9.50;32.70;;;;;;5101703;28;20347;-80
2022/03/13 11:19:28;;;;;;;;;;;9.70;32.50;;;;;;5102835;28;19908;-79
2022/03/13 11:21:54;;;;;;;;;;;9.90;31.90;;;;;;5084398;28;19969;-79
2022/03/13 11:24:20;;;;;;;;;;;10.00;31.50;;;;;;5101610;28;19918;-80
2022/03/13 11:26:49;;;;;;;;;;;10.00;32.10;;;;;;5084189;28;20210;-80
2022/03/13 11:29:34;;;;;;;;;;;10.30;31.40;;;;;;5083931;28;19918;-79
2022/03/13 11:32:01;;;;;;;;;;;10.40;31.90;;;;;;5102209;28;19912;-79
2022/03/13 11:34:26;;;;;;;;;;;10.70;30.80;;;;;;5102116;28;20208;-79
2022/03/13 11:36:52;;;;;;;;;;;10.80;30.70;;;;;;5102075;28;20432;-79
2022/03/13 11:39:25;;;;;;;;;;;10.80;30.00;;;;;;5102727;28;19907;-80
2022/03/13 11:41:51;;;;;;;;;;;10.70;30.20;;;;;;5102063;28;19907;-79
2022/03/13 11:44:22;;;;;;;;;;;10.40;29.70;;;;;;5101218;28;19908;-79
2022/03/13 11:46:52;;;;;;;;;;;10.50;30.30;;;;;;5082856;28;19928;-79
2022/03/13 11:49:38;;;;;;;;;;;10.70;29.90;;;;;;5082236;28;19908;-79
2022/03/13 11:52:09;;;;;;;;;;;11.00;29.20;;;;;;5100988;28;19923;-80
2022/03/13 11:54:48;;;;;;;;;;;11.20;29.50;;;;;;5100828;28;19912;-80
2022/03/13 11:57:15;;;;;;;;;;;11.50;29.80;;;;;;5101535;28;20006;-80
2022/03/13 11:59:40;;;;;;;;;;;11.90;28.70;;;;;;5102144;28;19950;-80
2022/03/13 12:02:09;;;;;;;;;;;12.20;27.90;;;;;;5104371;28;20258;-79
2022/03/13 12:04:35;;;;;;;;;;;11.90;27.20;;;;;;5085982;28;20318;-79
2022/03/13 12:07:01;;;;;;;;;;;11.80;27.60;;;;;;5085115;28;19907;-80
2022/03/13 12:09:30;;;;;;;;;;;12.10;27.60;;;;;;5084936;28;20467;-80
2022/03/13 12:11:55;;;;;;;;;;;12.50;28.60;;;;;;5103672;28;19907;-81
2022/03/13 12:14:21;;;;;;;;;;;12.60;26.50;;;;;;5102063;28;20089;-80
2022/03/13 12:16:55;;;;;;;;;;;12.90;26.40;;;;;;5100887;28;20293;-80
2022/03/13 12:19:21;;;;;;;;;;;13.10;26.00;;;;;;5084662;28;19915;-81
2022/03/13 12:21:47;;;;;;;;;;;13.40;26.90;;;;;;5101449;28;19912;-80
2022/03/13 12:24:15;;;;;;;;;;;13.60;27.30;;;;;;5099758;28;20008;-79
2022/03/13 12:26:41;;;;;;;;;;;13.50;25.50;;;;;;5099135;28;19908;-79
2022/03/13 12:29:14;;;;;;;;;;;13.50;25.90;;;;;;5098872;28;19912;-79
2022/03/13 12:31:40;;;;;;;;;;;13.30;25.70;;;;;;5080683;28;19939;-77
2022/03/13 12:34:06;;;;;;;;;;;13.30;25.50;;;;;;5080068;28;19908;-77
2022/03/13 12:36:36;;;;;;;;;;;13.40;25.00;;;;;;5079829;28;19916;-78
2022/03/13 12:39:06;;;;;;;;;;;13.40;25.00;;;;;;5098601;28;20393;-78
2022/03/13 12:41:32;;;;;;;;;;;13.50;24.60;;;;;;5080444;28;19916;-78
2022/03/13 12:44:04;;;;;;;;;;;13.50;24.40;;;;;;5098517;28;20283;-78
2022/03/13 12:46:32;;;;;;;;;;;13.20;24.30;;;;;;5098858;28;19951;-80
2022/03/13 12:48:59;;;;;;;;;;;12.70;25.10;;;;;;5098905;28;19943;-80
2022/03/13 12:51:38;;;;;;;;;;;13.20;25.00;;;;;;5079904;28;20263;-78
2022/03/13 12:54:04;;;;;;;;;;;13.30;24.70;;;;;;5079852;28;19915;-79
2022/03/13 12:56:30;;;;;;;;;;;13.40;24.10;;;;;;5098187;28;20172;-79
2022/03/13 12:58:57;;;;;;;;;;;13.80;24.80;;;;;;5099355;28;20305;-78
2022/03/13 13:01:23;;;;;;;;;;;13.70;24.10;;;;;;5098932;28;19919;-79
2022/03/13 13:03:52;;;;;;;;;;;14.20;25.20;;;;;;5097896;28;20107;-78
2022/03/13 13:06:35;;;;;;;;;;;14.20;23.90;;;;;;5100031;28;19918;-78
2022/03/13 13:09:02;;;;;;;;;;;14.30;23.90;;;;;;5109909;28;19997;-79
2022/03/13 13:11:37;;;;;;;;;;;14.00;24.20;;;;;;5090040;28;19912;-78
2022/03/13 13:14:03;;;;;;;;;;;14.10;24.10;;;;;;5101743;28;19912;-78
2022/03/13 13:16:30;;;;;;;;;;;13.90;23.00;;;;;;5101773;28;19926;-78
2022/03/13 13:18:57;;;;;;;;;;;14.10;23.50;;;;;;5101719;28;19919;-78
2022/03/13 13:21:32;;;;;;;;;;;14.50;23.10;;;;;;5101394;28;19922;-78
2022/03/13 13:23:58;;;;;;;;;;;15.10;23.20;;;;;;5082836;28;19912;-78
2022/03/13 13:26:39;;;;;;;;;;;15.60;23.60;;;;;;5102071;28;20420;-78
2022/03/13 13:29:05;;;;;;;;;;;15.90;23.60;;;;;;5065996;28;20157;-78
2022/03/13 13:31:30;;;;;;;;;;;15.80;22.60;;;;;;5101650;28;20285;-77
2022/03/13 13:33:56;;;;;;;;;;;15.90;22.30;;;;;;5101020;28;19908;-78
2022/03/13 13:36:21;;;;;;;;;;;15.90;21.60;;;;;;5101202;28;19961;-78
2022/03/13 13:38:47;;;;;;;;;;;16.00;20.70;;;;;;5100837;28;19916;-78
2022/03/13 13:41:20;;;;;;;;;;;15.60;21.20;;;;;;5100656;28;19912;-78
2022/03/13 13:43:46;;;;;;;;;;;15.50;21.60;;;;;;5101135;28;19908;-77
2022/03/13 13:46:16;;;;;;;;;;;16.00;22.80;;;;;;5101030;28;19916;-77
2022/03/13 13:48:45;;;;;;;;;;;16.10;22.10;;;;;;5101086;28;19908;-77
2022/03/13 13:51:19;;;;;;;;;;;16.50;22.10;;;;;;5100165;28;20438;-78
2022/03/13 13:54:08;;;;;;;;;;;18.40;21.80;;;;;;5082440;28;19918;-78
2022/03/13 13:56:34;;;;;;;;;;;16.60;20.20;;;;;;5085592;28;19916;-78
2022/03/13 14:02:13;;;;;;;;;;;16.80;20.40;;;;;;5017376;28;19917;-77
2022/03/13 14:04:42;;;;;;;;;;;17.20;20.70;;;;;;5017232;28;19909;-78
2022/03/13 14:07:08;;;;;;;;;;;17.60;20.60;;;;;;5017489;28;19909;-79
2022/03/13 14:09:35;;;;;;;;;;;17.70;21.30;;;;;;5000406;28;19910;-78
2022/03/13 14:12:01;;;;;;;;;;;18.10;21.80;;;;;;5017066;28;19940;-80
2022/03/13 14:14:27;;;;;;;;;;;18.50;20.80;;;;;;5017027;28;19909;-78
2022/03/13 14:16:52;;;;;;;;;;;18.70;19.80;;;;;;5017164;28;20360;-78
2022/03/13 14:19:18;;;;;;;;;;;18.10;19.80;;;;;;5016408;28;19909;-78
2022/03/13 14:21:44;;;;;;;;;;;18.20;20.00;;;;;;5016760;28;19955;-78
2022/03/13 14:24:11;;;;;;;;;;;18.10;19.40;;;;;;5016968;28;19927;-78